createdAt,value
2022-08-26T00:01:44.261Z,59.06
2022-08-26T00:04:12.345Z,60.75
2022-08-26T00:06:46.073Z,63.01
2022-08-26T00:09:16.232Z,61.01
2022-08-26T00:11:44.728Z,58.30
2022-08-26T00:14:13.675Z,58.35
2022-08-26T00:16:47.738Z,59.72
2022-08-26T00:19:18.347Z,61.18
2022-08-26T00:21:48.774Z,63.53
2022-08-26T00:24:20.270Z,61.84
2022-08-26T00:26:47.614Z,58.21
2022-08-26T00:29:14.261Z,57.93
2022-08-26T00:31:42.120Z,59.62
2022-08-26T00:34:11.329Z,61.46
2022-08-26T00:36:39.290Z,63.64
2022-08-26T00:39:07.677Z,62.64
2022-08-26T00:41:37.271Z,59.87
2022-08-26T00:44:04.938Z,56.03
2022-08-26T00:46:36.373Z,56.12
2022-08-26T00:49:15.223Z,57.74
2022-08-26T00:51:47.604Z,59.99
2022-08-26T00:54:16.375Z,61.56
2022-08-26T00:57:16.225Z,63.89
2022-08-26T00:59:46.621Z,63.35
2022-08-26T01:02:21.281Z,59.05
2022-08-26T01:04:56.262Z,58.34
2022-08-26T01:07:30.328Z,59.83
2022-08-26T01:10:05.652Z,61.79
2022-08-26T01:12:40.166Z,64.42
2022-08-26T01:15:13.043Z,63.14
2022-08-26T01:17:39.587Z,59.05
2022-08-26T01:20:30.828Z,56.55
2022-08-26T01:23:09.112Z,58.23
2022-08-26T01:25:41.217Z,60.61
2022-08-26T01:28:15.093Z,63.42
2022-08-26T01:30:44.798Z,62.35
2022-08-26T01:33:15.364Z,58.74
2022-08-26T01:35:43.986Z,57.86
2022-08-26T01:38:12.194Z,59.40
2022-08-26T01:40:42.787Z,60.85
2022-08-26T01:43:16.203Z,64.02
2022-08-26T01:45:45.297Z,63.15
2022-08-26T01:48:18.549Z,60.27
2022-08-26T01:50:46.817Z,56.60
2022-08-26T01:53:18.061Z,56.71
2022-08-26T01:55:50.350Z,58.45
2022-08-26T01:58:25.838Z,60.16
2022-08-26T02:00:53.987Z,63.41
2022-08-26T02:03:22.011Z,61.74
2022-08-26T02:05:56.402Z,58.39
2022-08-26T02:08:30.402Z,58.15
2022-08-26T02:10:57.097Z,59.89
2022-08-26T02:13:29.369Z,61.57
2022-08-26T02:15:56.830Z,64.86
2022-08-26T02:18:25.007Z,63.34
2022-08-26T02:20:53.488Z,60.63
2022-08-26T02:23:19.859Z,57.08
2022-08-26T02:26:01.891Z,57.00
2022-08-26T02:28:35.239Z,58.55
2022-08-26T02:31:02.656Z,60.41
2022-08-26T02:33:29.875Z,63.30
2022-08-26T02:35:57.363Z,62.70
2022-08-26T02:38:23.976Z,59.90
2022-08-26T02:40:50.444Z,56.12
2022-08-26T02:43:18.029Z,56.48
2022-08-26T02:45:45.340Z,58.10
2022-08-26T02:48:15.262Z,59.94
2022-08-26T02:50:42.115Z,62.96
2022-08-26T02:53:10.408Z,62.08
2022-08-26T02:55:37.148Z,58.17
2022-08-26T02:58:04.429Z,57.57
2022-08-26T03:00:32.106Z,59.55
2022-08-26T03:02:59.178Z,61.28
2022-08-26T03:05:25.830Z,63.92
2022-08-26T03:07:52.677Z,63.26
2022-08-26T03:10:21.533Z,60.13
2022-08-26T03:12:48.262Z,56.58
2022-08-26T03:15:17.932Z,56.26
2022-08-26T03:17:47.124Z,57.75
2022-08-26T03:20:15.571Z,59.85
2022-08-26T03:22:44.898Z,61.62
2022-08-26T03:25:14.446Z,65.11
2022-08-26T03:27:43.122Z,63.48
2022-08-26T03:30:31.109Z,60.61
2022-08-26T03:32:58.414Z,56.32
2022-08-26T03:35:25.226Z,56.59
2022-08-26T03:37:52.591Z,58.37
2022-08-26T03:40:20.369Z,60.50
2022-08-26T03:42:47.717Z,63.01
2022-08-26T03:45:16.423Z,62.40
2022-08-26T03:47:43.988Z,58.73
2022-08-26T03:50:13.159Z,57.88
2022-08-26T03:52:43.686Z,59.51
2022-08-26T03:55:11.442Z,61.30
2022-08-26T03:57:37.949Z,63.78
2022-08-26T04:00:08.096Z,63.21
2022-08-26T04:02:34.689Z,60.71
2022-08-26T04:05:02.011Z,57.57
2022-08-26T04:07:28.819Z,57.26
2022-08-26T04:09:58.595Z,59.06
2022-08-26T04:12:25.592Z,60.70
2022-08-26T04:14:53.413Z,63.66
2022-08-26T04:17:20.762Z,62.33
2022-08-26T04:19:54.886Z,60.67
2022-08-26T04:22:24.093Z,56.55
2022-08-26T04:24:52.390Z,56.72
2022-08-26T04:27:19.157Z,58.26
2022-08-26T04:29:45.988Z,60.25
2022-08-26T04:32:15.514Z,63.28
2022-08-26T04:34:43.610Z,62.77
2022-08-26T04:37:12.668Z,60.42
2022-08-26T04:39:39.594Z,56.75
2022-08-26T04:42:06.118Z,56.85
2022-08-26T04:44:35.103Z,58.50
2022-08-26T04:47:01.747Z,60.48
2022-08-26T04:49:35.195Z,63.13
2022-08-26T04:52:04.812Z,62.85
2022-08-26T04:54:31.395Z,60.17
2022-08-26T04:56:57.929Z,56.59
2022-08-26T04:59:24.585Z,56.62
2022-08-26T05:01:58.768Z,58.16
2022-08-26T05:04:26.133Z,59.94
2022-08-26T05:06:56.676Z,62.94
2022-08-26T05:09:25.884Z,62.13
2022-08-26T05:11:52.512Z,58.37
2022-08-26T05:14:22.599Z,57.96
2022-08-26T05:16:49.408Z,59.10
2022-08-26T05:19:18.930Z,60.85
2022-08-26T05:21:47.945Z,63.91
2022-08-26T05:24:16.166Z,62.57
2022-08-26T05:26:44.510Z,58.81
2022-08-26T05:29:11.917Z,57.21
2022-08-26T05:31:38.784Z,58.31
2022-08-26T05:34:06.068Z,60.08
2022-08-26T05:36:35.371Z,62.85
2022-08-26T05:39:03.951Z,63.20
2022-08-26T05:41:36.267Z,60.89
2022-08-26T05:44:06.973Z,57.11
2022-08-26T05:46:34.664Z,56.67
2022-08-26T05:49:03.770Z,58.52
2022-08-26T05:51:31.045Z,60.68
2022-08-26T05:54:00.418Z,61.38
2022-08-26T05:56:28.288Z,63.67
2022-08-26T05:58:56.367Z,62.31
2022-08-26T06:01:27.933Z,57.96
2022-08-26T06:03:57.931Z,57.97
2022-08-26T06:06:31.054Z,59.50
2022-08-26T06:08:59.546Z,60.57
2022-08-26T06:11:28.714Z,62.06
2022-08-26T06:14:02.555Z,63.58
2022-08-26T06:16:33.969Z,62.04
2022-08-26T06:19:02.749Z,57.96
2022-08-26T06:21:32.392Z,56.97
2022-08-26T06:24:26.972Z,58.26
2022-08-26T06:27:00.548Z,59.68
2022-08-26T06:29:29.159Z,61.16
2022-08-26T06:31:57.330Z,63.62
2022-08-26T06:34:26.598Z,62.26
2022-08-26T06:37:01.544Z,57.83
2022-08-26T06:39:30.764Z,57.52
2022-08-26T06:41:59.552Z,58.52
2022-08-26T06:44:26.613Z,59.50
2022-08-26T06:46:53.513Z,60.39
2022-08-26T06:49:26.745Z,61.84
2022-08-26T06:51:57.389Z,63.75
2022-08-26T06:54:25.956Z,60.85
2022-08-26T06:56:52.996Z,56.51
2022-08-26T06:59:21.194Z,56.72
2022-08-26T07:01:47.767Z,57.65
2022-08-26T07:04:20.196Z,57.98
2022-08-26T07:06:50.153Z,58.12
2022-08-26T07:09:25.701Z,59.01
2022-08-26T07:11:55.456Z,60.34
2022-08-26T07:14:22.299Z,60.49
2022-08-26T07:16:50.269Z,60.86
2022-08-26T07:19:29.909Z,61.14
2022-08-26T07:22:01.257Z,62.36
2022-08-26T07:24:28.423Z,62.02
2022-08-26T07:27:03.377Z,57.58
2022-08-26T07:29:34.361Z,55.52
2022-08-26T07:32:01.909Z,54.54
2022-08-26T07:34:28.800Z,54.16
2022-08-26T07:36:56.275Z,53.77
2022-08-26T07:39:23.826Z,54.60
2022-08-26T07:41:51.827Z,55.43
2022-08-26T07:44:20.477Z,56.47
2022-08-26T07:46:52.464Z,56.51
2022-08-26T07:49:21.980Z,57.40
2022-08-26T07:51:49.231Z,57.97
2022-08-26T07:54:16.237Z,58.15
2022-08-26T07:56:44.291Z,58.61
2022-08-26T07:59:13.570Z,59.06
2022-08-26T08:01:44.767Z,59.50
2022-08-26T08:04:14.025Z,60.03
2022-08-26T08:06:41.665Z,61.02
2022-08-26T08:09:12.664Z,61.51
2022-08-26T08:11:40.764Z,61.61
2022-08-26T08:14:08.513Z,61.97
2022-08-26T08:16:41.538Z,63.52
2022-08-26T08:19:13.852Z,59.11
2022-08-26T08:21:42.368Z,57.06
2022-08-26T08:24:10.655Z,57.19
2022-08-26T08:26:37.415Z,57.82
2022-08-26T08:29:04.861Z,58.10
2022-08-26T08:31:57.073Z,59.38
2022-08-26T08:34:20.080Z,58.93
2022-08-26T08:36:49.743Z,59.33
2022-08-26T08:39:19.846Z,58.49
2022-08-26T08:42:10.442Z,59.58
2022-08-26T08:44:41.177Z,59.35
2022-08-26T08:47:37.167Z,59.76
2022-08-26T08:50:19.426Z,59.35
2022-08-26T08:52:54.729Z,59.70
2022-08-26T08:55:30.739Z,59.52
2022-08-26T08:58:12.011Z,59.31
2022-08-26T09:00:57.283Z,59.08
2022-08-26T09:03:51.706Z,59.03
2022-08-26T09:06:19.941Z,57.81
2022-08-26T09:08:50.166Z,58.33
2022-08-26T09:11:19.695Z,57.87
2022-08-26T09:13:52.901Z,58.50
2022-08-26T09:16:37.919Z,58.51
2022-08-26T09:19:32.836Z,57.83
2022-08-26T09:22:02.249Z,57.71
2022-08-26T09:24:39.563Z,57.43
2022-08-26T09:27:08.799Z,57.55
2022-08-26T09:29:43.954Z,57.55
2022-08-26T09:32:24.520Z,56.18
2022-08-26T09:34:58.337Z,55.83
2022-08-26T09:40:22.020Z,55.22
2022-08-26T09:43:15.303Z,55.49
2022-08-26T09:45:51.115Z,54.39
2022-08-26T09:48:29.674Z,53.80
2022-08-26T09:50:59.715Z,54.37
2022-08-26T09:53:30.540Z,53.94
2022-08-26T09:56:32.006Z,53.07
2022-08-26T09:59:00.369Z,53.30
2022-08-26T10:01:42.340Z,53.47
2022-08-26T10:04:20.859Z,53.02
2022-08-26T10:06:58.441Z,52.10
2022-08-26T10:09:26.364Z,52.04
2022-08-26T10:11:56.178Z,50.94
2022-08-26T10:14:32.015Z,50.49
2022-08-26T10:17:05.338Z,50.87
2022-08-26T10:19:56.527Z,50.57
2022-08-26T10:22:42.923Z,50.33
2022-08-26T10:25:19.842Z,50.20
2022-08-26T10:28:08.078Z,48.96
2022-08-26T10:30:49.770Z,49.69
2022-08-26T10:33:17.931Z,48.76
2022-08-26T10:35:56.054Z,48.62
2022-08-26T10:38:34.143Z,48.06
2022-08-26T10:41:23.531Z,48.53
2022-08-26T10:43:59.689Z,48.09
2022-08-26T10:46:35.304Z,47.87
2022-08-26T10:49:12.484Z,47.56
2022-08-26T10:52:03.159Z,46.89
2022-08-26T10:55:08.486Z,47.40
2022-08-26T10:57:53.884Z,47.52
2022-08-26T11:00:45.609Z,47.23
2022-08-26T11:03:35.197Z,47.51
2022-08-26T11:06:23.216Z,47.21
2022-08-26T11:08:56.456Z,46.58
2022-08-26T11:11:44.740Z,46.98
2022-08-26T11:14:40.739Z,46.90
2022-08-26T11:17:46.308Z,47.47
2022-08-26T11:20:21.933Z,47.67
2022-08-26T11:22:52.681Z,48.08
2022-08-26T11:25:29.135Z,47.96
2022-08-26T11:27:59.197Z,47.77
2022-08-26T11:30:36.256Z,46.04
2022-08-26T11:33:02.723Z,46.42
2022-08-26T11:35:46.987Z,46.90
2022-08-26T11:38:30.251Z,47.06
2022-08-26T11:41:20.246Z,47.81
2022-08-26T11:43:51.396Z,47.19
2022-08-26T11:46:26.835Z,45.69
2022-08-26T11:49:01.933Z,45.82
2022-08-26T11:51:30.866Z,45.61
2022-08-26T11:54:13.515Z,45.66
2022-08-26T11:56:42.268Z,45.13
2022-08-26T11:59:12.514Z,45.06
2022-08-26T12:01:43.858Z,43.91
2022-08-26T12:04:20.302Z,44.06
2022-08-26T12:06:50.313Z,43.67
2022-08-26T12:09:23.201Z,42.90
2022-08-26T12:11:49.821Z,42.75
2022-08-26T12:14:23.775Z,43.52
2022-08-26T12:16:52.739Z,43.31
2022-08-26T12:19:26.170Z,42.32
2022-08-26T12:22:01.517Z,43.22
2022-08-26T12:24:28.337Z,42.35
2022-08-26T12:27:16.282Z,43.05
2022-08-26T12:29:43.379Z,42.32
2022-08-26T12:32:17.752Z,41.72
2022-08-26T12:34:48.389Z,41.89
2022-08-26T12:37:15.176Z,42.22
2022-08-26T12:39:44.113Z,41.98
2022-08-26T12:42:15.198Z,42.59
2022-08-26T12:44:53.471Z,42.41
2022-08-26T12:47:42.291Z,42.37
2022-08-26T12:50:15.586Z,41.93
2022-08-26T12:52:58.371Z,40.99
2022-08-26T12:55:34.932Z,41.09
2022-08-26T12:58:31.152Z,40.53
2022-08-26T13:01:03.846Z,40.41
2022-08-26T13:03:43.079Z,39.02
2022-08-26T13:06:21.897Z,38.98
2022-08-26T13:09:05.552Z,39.17
2022-08-26T13:11:52.541Z,39.05
2022-08-26T13:14:23.842Z,39.62
2022-08-26T13:16:52.393Z,38.17
2022-08-26T13:19:21.798Z,37.77
2022-08-26T13:21:53.880Z,37.78
2022-08-26T13:24:41.821Z,37.92
2022-08-26T13:27:11.181Z,37.87
2022-08-26T13:29:38.144Z,37.31
2022-08-26T13:32:05.989Z,37.63
2022-08-26T13:34:33.561Z,37.40
2022-08-26T13:37:00.059Z,36.98
2022-08-26T13:39:26.561Z,37.16
2022-08-26T13:41:54.081Z,36.87
2022-08-26T13:44:21.152Z,37.85
2022-08-26T13:46:47.514Z,37.74
2022-08-26T13:49:14.013Z,37.27
2022-08-26T13:51:41.298Z,37.53
2022-08-26T13:54:07.772Z,36.89
2022-08-26T13:56:35.223Z,37.18
2022-08-26T13:59:02.298Z,36.86
2022-08-26T14:01:31.021Z,36.50
2022-08-26T14:03:58.118Z,36.75
2022-08-26T14:06:24.904Z,36.30
2022-08-26T14:08:51.430Z,36.78
2022-08-26T14:11:18.388Z,37.08
2022-08-26T14:13:44.822Z,36.71
2022-08-26T14:16:19.853Z,37.25
2022-08-26T14:18:50.472Z,36.62
2022-08-26T14:21:17.732Z,37.01
2022-08-26T14:23:44.168Z,36.91
2022-08-26T14:26:10.702Z,36.30
2022-08-26T14:28:45.738Z,37.05
2022-08-26T14:31:12.829Z,37.46
2022-08-26T14:33:39.320Z,37.30
2022-08-26T14:36:25.294Z,36.78
2022-08-26T14:38:53.623Z,37.06
2022-08-26T14:41:22.279Z,37.20
2022-08-26T14:43:57.115Z,36.59
2022-08-26T14:46:27.591Z,36.75
2022-08-26T14:48:56.638Z,36.70
2022-08-26T14:51:28.507Z,36.41
2022-08-26T14:54:13.138Z,35.79
2022-08-26T14:56:46.851Z,36.50
2022-08-26T14:59:16.859Z,36.26
2022-08-26T15:01:43.913Z,36.33
2022-08-26T15:04:10.488Z,35.91
2022-08-26T15:06:37.566Z,35.94
2022-08-26T15:09:04.091Z,36.27
2022-08-26T15:11:30.639Z,35.99
2022-08-26T15:13:57.143Z,35.99
2022-08-26T15:16:23.837Z,35.80
2022-08-26T15:18:51.016Z,35.67
2022-08-26T15:21:19.344Z,35.55
2022-08-26T15:23:48.057Z,35.84
2022-08-26T15:26:16.369Z,35.86
2022-08-26T15:28:43.219Z,36.07
2022-08-26T15:31:10.234Z,36.19
2022-08-26T15:33:37.591Z,36.52
2022-08-26T15:36:06.503Z,36.59
2022-08-26T15:38:37.412Z,36.61
2022-08-26T15:41:05.964Z,36.94
2022-08-26T15:43:32.690Z,36.95
2022-08-26T15:45:59.026Z,37.32
2022-08-26T15:48:25.721Z,37.04
2022-08-26T15:50:59.715Z,36.82
2022-08-26T15:53:29.856Z,36.88
2022-08-26T15:55:57.950Z,37.38
2022-08-26T15:58:26.972Z,37.73
2022-08-26T16:00:55.123Z,37.68
2022-08-26T16:03:22.100Z,37.71
2022-08-26T16:05:48.539Z,37.77
2022-08-26T16:08:15.380Z,38.02
2022-08-26T16:10:49.792Z,38.00
2022-08-26T16:13:19.380Z,38.03
2022-08-26T16:15:47.366Z,38.21
2022-08-26T16:18:14.877Z,38.63
2022-08-26T16:21:12.575Z,38.64
2022-08-26T16:23:37.752Z,38.52
2022-08-26T16:26:10.527Z,38.77
2022-08-26T16:28:37.845Z,38.98
2022-08-26T16:31:05.938Z,39.00
2022-08-26T16:33:32.614Z,39.32
2022-08-26T16:35:59.186Z,39.65
2022-08-26T16:38:25.660Z,39.93
2022-08-26T16:40:52.202Z,39.70
2022-08-26T16:43:18.682Z,39.93
2022-08-26T16:45:45.119Z,40.11
2022-08-26T16:48:11.602Z,40.45
2022-08-26T16:50:39.997Z,40.25
2022-08-26T16:53:07.190Z,40.52
2022-08-26T16:55:35.235Z,41.11
2022-08-26T16:58:02.154Z,41.45
2022-08-26T17:00:31.789Z,41.45
2022-08-26T17:02:59.939Z,41.54
2022-08-26T17:05:27.514Z,41.44
2022-08-26T17:07:56.035Z,41.57
2022-08-26T17:10:24.175Z,41.81
2022-08-26T17:12:51.327Z,42.50
2022-08-26T17:15:18.338Z,42.51
2022-08-26T17:17:44.995Z,42.85
2022-08-26T17:20:14.424Z,43.04
2022-08-26T17:22:43.831Z,43.29
2022-08-26T17:25:14.550Z,43.36
2022-08-26T17:27:41.894Z,43.56
2022-08-26T17:30:09.083Z,43.88
2022-08-26T17:32:35.980Z,44.19
2022-08-26T17:35:04.578Z,44.39
2022-08-26T17:37:31.457Z,44.38
2022-08-26T17:39:57.829Z,44.62
2022-08-26T17:42:31.574Z,44.72
2022-08-26T17:44:58.457Z,44.75
2022-08-26T17:47:25.093Z,44.97
2022-08-26T17:49:51.576Z,45.07
2022-08-26T17:52:17.975Z,45.27
2022-08-26T17:54:44.372Z,45.68
2022-08-26T17:57:10.905Z,46.01
2022-08-26T17:59:38.271Z,46.51
2022-08-26T18:02:07.454Z,47.15
2022-08-26T18:04:34.119Z,47.74
2022-08-26T18:07:00.834Z,47.39
2022-08-26T18:09:30.984Z,47.47
2022-08-26T18:11:57.921Z,47.83
2022-08-26T18:14:24.751Z,48.06
2022-08-26T18:16:51.422Z,48.41
2022-08-26T18:19:17.952Z,48.25
2022-08-26T18:21:44.466Z,48.68
2022-08-26T18:24:14.077Z,48.59
2022-08-26T18:26:47.353Z,49.36
2022-08-26T18:29:15.440Z,50.14
2022-08-26T18:31:42.513Z,51.62
2022-08-26T18:34:14.714Z,52.90
2022-08-26T18:36:42.244Z,53.65
2022-08-26T18:39:10.395Z,54.28
2022-08-26T18:41:51.883Z,54.86
2022-08-26T18:44:22.547Z,55.16
2022-08-26T18:46:50.634Z,55.92
2022-08-26T18:49:19.706Z,56.15
2022-08-26T18:51:49.905Z,56.14
2022-08-26T18:54:16.790Z,55.00
2022-08-26T18:56:44.049Z,54.98
2022-08-26T18:59:12.086Z,54.87
2022-08-26T19:01:40.052Z,54.89
2022-08-26T19:04:08.201Z,54.64
2022-08-26T19:06:35.540Z,54.73
2022-08-26T19:09:04.700Z,54.93
2022-08-26T19:11:37.568Z,56.87
2022-08-26T19:14:13.017Z,56.96
2022-08-26T19:16:42.686Z,56.82
2022-08-26T19:19:09.637Z,57.08
2022-08-26T19:21:37.054Z,57.43
2022-08-26T19:24:08.061Z,56.51
2022-08-26T19:26:35.613Z,56.80
2022-08-26T19:29:02.293Z,57.20
2022-08-26T19:31:28.720Z,56.68
2022-08-26T19:33:57.310Z,56.60
2022-08-26T19:36:25.372Z,56.41
2022-08-26T19:38:52.978Z,56.45
2022-08-26T19:41:27.790Z,56.73
2022-08-26T19:44:10.444Z,56.46
2022-08-26T19:49:08.579Z,56.59
2022-08-26T19:51:38.647Z,56.98
2022-08-26T19:54:05.365Z,57.62
2022-08-26T19:56:31.948Z,58.31
2022-08-26T19:58:58.281Z,58.38
2022-08-26T20:01:25.240Z,58.15
2022-08-26T20:03:52.329Z,58.36
2022-08-26T20:06:19.508Z,58.41
2022-08-26T20:08:46.450Z,58.20
2022-08-26T20:11:15.534Z,58.24
2022-08-26T20:13:43.650Z,58.22
2022-08-26T20:16:11.357Z,58.55
2022-08-26T20:18:58.962Z,60.00
2022-08-26T20:21:26.291Z,60.24
2022-08-26T20:23:59.823Z,59.49
2022-08-26T20:26:35.304Z,59.04
2022-08-26T20:29:03.319Z,58.94
2022-08-26T20:31:30.423Z,59.32
2022-08-26T20:33:56.921Z,59.53
2022-08-26T20:36:26.306Z,59.69
2022-08-26T20:38:53.847Z,60.27
2022-08-26T20:41:20.503Z,60.28
2022-08-26T20:43:47.043Z,60.24
2022-08-26T20:46:16.912Z,60.46
2022-08-26T20:48:45.659Z,60.73
2022-08-26T20:51:12.303Z,60.46
2022-08-26T20:53:39.101Z,60.74
2022-08-26T20:56:08.223Z,61.14
2022-08-26T20:58:35.242Z,60.99
2022-08-26T21:01:07.367Z,61.07
2022-08-26T21:03:35.889Z,61.02
2022-08-26T21:06:03.253Z,61.27
2022-08-26T21:08:29.992Z,61.69
2022-08-26T21:11:00.572Z,63.31
2022-08-26T21:13:27.015Z,59.75
2022-08-26T21:15:57.685Z,55.78
2022-08-26T21:18:24.605Z,55.10
2022-08-26T21:20:51.101Z,55.44
2022-08-26T21:23:18.737Z,55.97
2022-08-26T21:25:45.941Z,56.57
2022-08-26T21:28:12.294Z,57.18
2022-08-26T21:30:40.286Z,58.03
2022-08-26T21:33:07.964Z,58.67
2022-08-26T21:35:35.015Z,59.45
2022-08-26T21:38:01.634Z,59.81
2022-08-26T21:40:28.085Z,59.79
2022-08-26T21:42:54.727Z,60.28
2022-08-26T21:45:21.172Z,60.57
2022-08-26T21:47:47.840Z,61.21
2022-08-26T21:50:14.255Z,61.23
2022-08-26T21:52:40.757Z,61.55
2022-08-26T21:55:09.346Z,62.75
2022-08-26T21:57:38.202Z,62.13
2022-08-26T22:00:08.319Z,57.21
2022-08-26T22:02:36.324Z,55.08
2022-08-26T22:05:03.659Z,55.24
2022-08-26T22:07:30.267Z,56.03
2022-08-26T22:09:57.333Z,56.68
2022-08-26T22:12:23.779Z,57.28
2022-08-26T22:14:50.210Z,57.91
2022-08-26T22:17:16.927Z,58.42
2022-08-26T22:19:46.302Z,59.14
2022-08-26T22:22:14.470Z,59.79
2022-08-26T22:24:42.670Z,60.61
2022-08-26T22:27:11.311Z,60.91
2022-08-26T22:29:38.427Z,61.36
2022-08-26T22:32:05.433Z,61.78
2022-08-26T22:34:32.007Z,62.05
2022-08-26T22:36:59.001Z,63.81
2022-08-26T22:39:26.242Z,62.66
2022-08-26T22:41:53.885Z,57.64
2022-08-26T22:44:21.688Z,55.61
2022-08-26T22:46:49.859Z,56.01
2022-08-26T22:49:16.973Z,56.43
2022-08-26T22:51:44.242Z,57.05
2022-08-26T22:54:11.367Z,57.74
2022-08-26T22:56:38.680Z,58.40
2022-08-26T22:59:07.298Z,58.93
2022-08-26T23:01:36.680Z,59.70
2022-08-26T23:04:04.746Z,60.25
2022-08-26T23:06:33.379Z,60.69
2022-08-26T23:08:59.709Z,61.28
2022-08-26T23:11:26.368Z,63.97
2022-08-26T23:13:52.969Z,63.05
2022-08-26T23:16:19.535Z,57.93
2022-08-26T23:18:46.504Z,55.66
2022-08-26T23:21:12.938Z,56.13
2022-08-26T23:23:39.405Z,57.16
2022-08-26T23:26:07.362Z,58.11
2022-08-26T23:28:35.602Z,58.99
2022-08-26T23:31:02.018Z,59.87
2022-08-26T23:33:48.745Z,60.67
2022-08-26T23:36:17.927Z,60.73
2022-08-26T23:38:46.292Z,61.91
2022-08-26T23:41:22.230Z,64.97
2022-08-26T23:43:49.273Z,63.16
2022-08-26T23:46:15.669Z,57.53
2022-08-26T23:48:42.133Z,56.09
2022-08-26T23:51:27.903Z,56.61
2022-08-26T23:53:54.791Z,57.68
2022-08-26T23:56:21.242Z,58.83
2022-08-26T23:58:47.775Z,59.67
